Time;durP1;ratioP1;P1;durP2;ratioP2;P2;SDS_P1;SDS_P2;PMS_P1;PMS_P2;Temp;Humidity;BMP_temperature;BMP_pressure;BME280_temperature;BME280_humidity;BME280_pressure;Samples;Min_cycle;Max_cycle;Signal;HPM_P1;HPM_P2
2021/12/04 00:00:24;;;;;;;79.40;41.97;;;4.90;99.90;;;;;;5082730;28;20420;-74
2021/12/04 00:02:53;;;;;;;68.70;39.20;;;4.90;99.90;;;;;;5090264;28;20416;-74
2021/12/04 00:05:20;;;;;;;72.22;40.38;;;4.90;99.90;;;;;;5089603;28;20416;-74
2021/12/04 00:07:46;;;;;;;74.05;40.03;;;4.90;99.90;;;;;;5086394;28;20414;-74
2021/12/04 00:10:21;;;;;;;57.90;34.22;;;4.90;99.90;;;;;;5087193;28;20787;-74
2021/12/04 00:12:47;;;;;;;68.53;38.23;;;4.90;99.90;;;;;;5087255;28;20460;-74
2021/12/04 00:15:13;;;;;;;66.15;37.90;;;4.90;99.90;;;;;;5084159;28;20809;-74
2021/12/04 00:17:39;;;;;;;66.83;38.80;;;4.90;99.90;;;;;;5084937;28;20398;-74
2021/12/04 00:20:07;;;;;;;69.50;38.80;;;4.90;99.90;;;;;;5071405;28;20466;-75
2021/12/04 00:22:33;;;;;;;61.30;37.92;;;4.90;99.90;;;;;;5087669;28;20481;-74
2021/12/04 00:24:58;;;;;;;66.03;38.60;;;4.90;99.90;;;;;;5086678;28;20507;-75
2021/12/04 00:27:24;;;;;;;67.53;38.10;;;4.90;99.90;;;;;;5086923;28;21211;-74
2021/12/04 00:29:49;;;;;;;71.10;39.23;;;4.90;99.90;;;;;;5086686;28;20432;-75
2021/12/04 00:32:25;;;;;;;65.10;37.85;;;4.90;99.90;;;;;;5069797;28;20413;-74
2021/12/04 00:35:00;;;;;;;65.70;37.70;;;4.90;99.90;;;;;;5086905;28;20406;-74
2021/12/04 00:51:24;;;;;;;69.22;38.28;;;4.90;99.90;;;;;;5087233;28;20427;-75
2021/12/04 00:53:54;;;;;;;75.93;39.25;;;4.90;99.90;;;;;;5087556;28;20401;-74
2021/12/04 00:56:20;;;;;;;78.00;40.13;;;4.90;99.90;;;;;;5086139;28;20409;-74
2021/12/04 00:58:46;;;;;;;80.18;40.20;;;4.90;99.90;;;;;;5069345;28;20919;-75
2021/12/04 01:01:14;;;;;;;84.35;41.58;;;4.90;99.90;;;;;;5086711;28;20398;-74
2021/12/04 01:03:39;;;;;;;84.53;41.72;;;4.90;99.90;;;;;;5087394;28;20394;-75
2021/12/04 01:06:06;;;;;;;83.03;41.40;;;4.90;99.90;;;;;;5087520;28;20413;-75
2021/12/04 01:08:33;;;;;;;86.13;41.83;;;4.90;99.90;;;;;;5089094;28;20422;-75
2021/12/04 01:10:59;;;;;;;91.53;42.30;;;4.90;99.90;;;;;;5089557;28;20486;-75
2021/12/04 01:13:24;;;;;;;86.47;40.23;;;4.90;99.90;;;;;;5089266;28;20487;-74
2021/12/04 01:15:50;;;;;;;93.27;43.57;;;4.90;99.90;;;;;;5089595;28;20523;-75
2021/12/04 01:18:16;;;;;;;99.50;43.35;;;4.90;99.90;;;;;;5089223;28;20920;-75
2021/12/04 01:20:41;;;;;;;92.50;42.07;;;4.90;99.90;;;;;;5089773;28;20933;-75
2021/12/04 01:23:07;;;;;;;99.00;43.53;;;4.90;99.90;;;;;;5090306;28;20441;-74
2021/12/04 01:25:35;;;;;;;105.07;45.22;;;4.90;99.90;;;;;;5090521;28;20747;-74
2021/12/04 01:28:03;;;;;;;99.78;45.10;;;4.80;99.90;;;;;;5090477;28;20751;-74
2021/12/04 01:30:29;;;;;;;106.35;45.97;;;4.90;99.90;;;;;;5085733;28;20406;-75
2021/12/04 01:32:54;;;;;;;105.90;45.17;;;4.90;99.90;;;;;;5105050;28;20450;-75
2021/12/04 01:35:20;;;;;;;96.60;44.08;;;4.90;99.90;;;;;;5089967;28;20438;-74
2021/12/04 01:37:46;;;;;;;103.57;44.97;;;4.90;99.90;;;;;;5090413;28;20758;-74
2021/12/04 01:40:12;;;;;;;108.33;43.60;;;4.90;99.90;;;;;;5090725;28;20405;-74
2021/12/04 01:42:38;;;;;;;101.18;44.55;;;4.90;99.90;;;;;;5090151;28;20465;-74
2021/12/04 01:45:06;;;;;;;105.53;44.85;;;4.90;99.90;;;;;;5073177;28;20400;-75
2021/12/04 01:47:32;;;;;;;106.85;45.05;;;4.90;99.90;;;;;;5090414;28;20411;-74
2021/12/04 01:49:59;;;;;;;108.07;44.58;;;4.90;99.90;;;;;;5086308;28;20426;-74
2021/12/04 01:52:25;;;;;;;109.15;45.50;;;4.90;99.90;;;;;;5087050;28;20488;-75
2021/12/04 01:54:51;;;;;;;109.65;45.53;;;4.90;99.90;;;;;;5086997;28;20390;-74
2021/12/04 01:57:20;;;;;;;103.07;43.77;;;4.90;99.90;;;;;;5086195;28;20415;-75
2021/12/04 01:59:46;;;;;;;107.50;44.17;;;4.90;99.90;;;;;;5086878;28;20406;-74
2021/12/04 02:02:12;;;;;;;115.63;46.17;;;4.90;99.90;;;;;;5086771;28;20923;-75
2021/12/04 02:04:38;;;;;;;119.77;47.73;;;4.90;99.90;;;;;;5086807;28;20551;-74
2021/12/04 02:07:04;;;;;;;120.40;46.60;;;4.90;99.90;;;;;;5090029;28;20400;-75
2021/12/04 02:09:35;;;;;;;130.18;46.65;;;4.90;99.90;;;;;;5089810;28;20436;-74
2021/12/04 02:12:05;;;;;;;116.82;45.85;;;4.80;99.90;;;;;;5089632;28;20910;-75
2021/12/04 02:14:31;;;;;;;121.75;45.65;;;4.90;99.90;;;;;;5072852;28;20412;-75
2021/12/04 02:16:56;;;;;;;121.63;46.70;;;4.90;99.90;;;;;;5090106;28;20750;-75
2021/12/04 02:19:23;;;;;;;129.32;48.58;;;4.90;99.90;;;;;;5093717;28;20396;-74
2021/12/04 02:21:49;;;;;;;133.23;49.13;;;4.80;99.90;;;;;;5093730;28;20415;-74
2021/12/04 02:24:15;;;;;;;134.87;47.90;;;4.90;99.90;;;;;;5093948;28;20404;-75
2021/12/04 02:26:40;;;;;;;128.90;46.25;;;4.80;99.90;;;;;;5111475;28;20425;-74
2021/12/04 02:29:06;;;;;;;140.75;48.83;;;4.80;99.90;;;;;;5093908;28;20424;-75
2021/12/04 02:31:32;;;;;;;131.33;47.03;;;4.80;99.90;;;;;;5093708;28;20897;-75
2021/12/04 02:33:57;;;;;;;143.93;50.28;;;4.90;99.90;;;;;;5093605;28;20879;-75
2021/12/04 02:36:23;;;;;;;149.07;50.35;;;4.80;99.90;;;;;;5093963;28;20436;-74
2021/12/04 02:38:51;;;;;;;152.07;49.20;;;4.80;99.90;;;;;;5093329;28;20466;-74
2021/12/04 02:41:19;;;;;;;150.20;50.17;;;4.80;99.90;;;;;;5089809;28;20410;-75
2021/12/04 02:43:45;;;;;;;154.27;49.53;;;4.80;99.90;;;;;;5090174;28;20477;-75
2021/12/04 02:46:12;;;;;;;177.63;53.23;;;4.80;99.90;;;;;;5091454;28;20775;-75
2021/12/04 02:48:38;;;;;;;181.52;53.55;;;4.80;99.90;;;;;;5089495;28;20528;-74
2021/12/04 02:51:04;;;;;;;159.02;50.88;;;4.80;99.90;;;;;;5091372;28;21213;-74
2021/12/04 02:53:30;;;;;;;176.10;51.92;;;4.80;99.90;;;;;;5091366;28;20402;-74
2021/12/04 02:55:55;;;;;;;185.48;52.90;;;4.80;99.90;;;;;;5091054;28;20764;-74
2021/12/04 02:58:21;;;;;;;196.13;54.00;;;4.80;99.90;;;;;;5090918;28;20409;-74
2021/12/04 03:00:48;;;;;;;187.13;51.45;;;4.80;99.90;;;;;;5089730;28;20406;-74
2021/12/04 03:03:17;;;;;;;172.55;49.15;;;4.70;99.90;;;;;;5091047;28;20485;-74
2021/12/04 03:05:46;;;;;;;182.77;51.38;;;4.70;99.90;;;;;;5089324;28;20398;-74
2021/12/04 03:08:11;;;;;;;154.50;47.40;;;4.70;99.90;;;;;;5088216;28;20422;-74
2021/12/04 03:10:37;;;;;;;176.40;49.93;;;4.70;99.90;;;;;;5088477;28;20409;-74
2021/12/04 03:13:07;;;;;;;154.43;48.60;;;4.70;99.90;;;;;;5088103;28;20406;-74
2021/12/04 03:15:33;;;;;;;155.93;48.47;;;4.70;99.90;;;;;;5089698;28;20402;-75
2021/12/04 03:17:58;;;;;;;164.37;49.30;;;4.70;99.90;;;;;;5089320;28;20402;-75
2021/12/04 03:20:24;;;;;;;146.83;45.73;;;4.70;99.90;;;;;;5089603;28;20756;-75
2021/12/04 03:22:55;;;;;;;150.60;46.53;;;4.70;99.90;;;;;;5071384;28;20398;-74
2021/12/04 03:25:21;;;;;;;140.32;44.63;;;4.70;99.90;;;;;;5089126;28;20420;-74
2021/12/04 03:27:49;;;;;;;149.45;46.08;;;4.70;99.90;;;;;;5089053;28;20778;-75
2021/12/04 03:30:30;;;;;;;151.93;46.97;;;4.70;99.90;;;;;;5088696;28;20461;-75
2021/12/04 03:35:20;;;;;;;160.65;47.40;;;4.70;99.90;;;;;;5089246;28;20558;-74
2021/12/04 03:41:02;;;;;;;133.23;43.67;;;4.70;99.90;;;;;;5091000;28;20796;-75
2021/12/04 03:43:29;;;;;;;145.05;45.30;;;4.70;99.90;;;;;;5091184;28;20909;-74
2021/12/04 03:45:59;;;;;;;159.60;46.83;;;4.70;99.90;;;;;;5091497;28;20788;-74
2021/12/04 03:50:58;;;;;;;141.32;44.95;;;4.70;99.90;;;;;;5109172;28;20893;-75
2021/12/04 03:53:24;;;;;;;125.82;42.40;;;4.70;99.90;;;;;;5090635;28;20397;-74
2021/12/04 03:55:50;;;;;;;136.98;43.40;;;4.70;99.90;;;;;;5090696;28;20399;-75
2021/12/04 03:58:17;;;;;;;140.90;44.72;;;4.70;99.90;;;;;;5109197;28;20904;-75
2021/12/04 04:00:43;;;;;;;108.63;40.42;;;4.70;99.90;;;;;;5074184;28;20438;-75
2021/12/04 04:03:08;;;;;;;117.07;40.03;;;4.70;99.90;;;;;;5109201;28;21013;-74
2021/12/04 04:05:34;;;;;;;121.27;41.80;;;4.70;99.90;;;;;;5108613;28;20393;-74
2021/12/04 04:08:00;;;;;;;111.30;40.17;;;4.70;99.90;;;;;;5090659;28;20941;-74
2021/12/04 04:10:25;;;;;;;106.88;39.45;;;4.70;99.90;;;;;;5091047;28;20845;-74
2021/12/04 04:12:51;;;;;;;98.67;37.60;;;4.70;99.90;;;;;;5090693;28;20515;-75
2021/12/04 04:15:17;;;;;;;105.30;38.28;;;4.70;99.90;;;;;;5108668;28;20408;-74
2021/12/04 04:17:43;;;;;;;110.63;39.97;;;4.70;99.90;;;;;;5108968;28;20812;-75
2021/12/04 04:20:15;;;;;;;109.15;38.97;;;4.70;99.90;;;;;;5108681;28;20427;-74
2021/12/04 04:22:41;;;;;;;94.43;36.55;;;4.70;99.90;;;;;;5108381;28;20403;-74
2021/12/04 04:25:08;;;;;;;104.30;38.03;;;4.70;99.90;;;;;;5108741;28;20392;-74
2021/12/04 04:27:34;;;;;;;93.75;36.22;;;4.70;99.90;;;;;;5090452;28;20449;-74
2021/12/04 04:30:01;;;;;;;104.47;38.38;;;4.70;99.90;;;;;;5089850;28;20917;-74
2021/12/04 04:32:26;;;;;;;102.67;37.27;;;4.70;99.90;;;;;;5090238;28;20580;-75
2021/12/04 04:34:55;;;;;;;111.03;40.13;;;4.70;99.90;;;;;;5090255;28;21053;-74
2021/12/04 05:14:32;;;;;;;98.13;36.60;;;4.70;99.90;;;;;;5089104;28;20412;-75
2021/12/04 05:17:04;;;;;;;99.85;38.08;;;4.70;99.90;;;;;;5089958;28;20411;-74
2021/12/04 05:22:05;;;;;;;92.15;35.22;;;4.70;99.90;;;;;;5089651;28;20414;-74
2021/12/04 05:24:31;;;;;;;92.60;35.63;;;4.70;99.90;;;;;;5089011;28;20462;-75
2021/12/04 05:26:57;;;;;;;90.47;35.03;;;4.60;99.90;;;;;;5088999;28;20400;-75
2021/12/04 05:29:23;;;;;;;95.20;35.45;;;4.70;99.90;;;;;;5089450;28;20436;-75
2021/12/04 05:31:49;;;;;;;84.60;33.90;;;4.70;99.90;;;;;;5089610;28;20403;-75
2021/12/04 05:34:14;;;;;;;95.60;35.95;;;4.70;99.90;;;;;;5088891;28;20405;-74
2021/12/04 05:36:40;;;;;;;86.38;34.20;;;4.70;99.90;;;;;;5088952;28;20471;-75
2021/12/04 05:39:06;;;;;;;95.82;34.55;;;4.70;99.90;;;;;;5089594;28;20416;-74
2021/12/04 05:41:32;;;;;;;83.80;33.50;;;4.70;99.90;;;;;;5089340;28;20949;-74
2021/12/04 05:44:00;;;;;;;80.97;32.93;;;4.70;99.90;;;;;;5072055;28;20400;-75
2021/12/04 05:46:28;;;;;;;77.63;32.07;;;4.70;99.90;;;;;;5072829;28;20538;-74
2021/12/04 05:49:04;;;;;;;87.00;32.43;;;4.70;99.90;;;;;;5088379;28;20519;-75
2021/12/04 05:51:45;;;;;;;75.03;30.98;;;4.70;99.90;;;;;;5089372;28;20792;-74
2021/12/04 05:54:33;;;;;;;82.88;32.13;;;4.70;99.90;;;;;;5075932;28;20404;-74
2021/12/04 05:56:59;;;;;;;80.13;31.63;;;4.70;99.90;;;;;;5093119;28;20435;-74
2021/12/04 05:59:27;;;;;;;75.45;30.55;;;4.70;99.90;;;;;;5093856;28;20731;-74
2021/12/04 06:01:52;;;;;;;67.70;30.23;;;4.70;99.90;;;;;;5112282;28;20475;-74
2021/12/04 06:04:18;;;;;;;68.63;30.10;;;4.70;99.90;;;;;;5093960;28;20411;-74
2021/12/04 06:06:44;;;;;;;72.93;30.47;;;4.70;99.90;;;;;;5077193;28;20442;-75
2021/12/04 06:09:10;;;;;;;68.83;28.73;;;4.70;99.90;;;;;;5076925;28;21052;-74
2021/12/04 06:11:36;;;;;;;71.93;29.58;;;4.70;99.90;;;;;;5112422;28;20399;-74
2021/12/04 06:14:02;;;;;;;65.55;28.75;;;4.70;99.90;;;;;;5093213;28;20823;-74
2021/12/04 06:16:28;;;;;;;57.13;26.87;;;4.70;99.90;;;;;;5094032;28;20428;-74
2021/12/04 06:18:55;;;;;;;61.27;28.20;;;4.70;99.90;;;;;;5093954;28;20496;-74
2021/12/04 06:24:06;;;;;;;54.65;26.10;;;4.70;99.90;;;;;;5111706;28;20761;-75
2021/12/04 06:26:33;;;;;;;56.72;26.08;;;4.70;99.90;;;;;;5093708;28;20396;-75
2021/12/04 06:28:59;;;;;;;61.73;26.87;;;4.70;99.90;;;;;;5093034;28;20516;-74
2021/12/04 06:31:26;;;;;;;59.88;26.77;;;4.70;99.90;;;;;;5111895;28;20396;-75
2021/12/04 06:33:52;;;;;;;54.22;25.95;;;4.70;99.90;;;;;;5111732;28;20404;-74
2021/12/04 06:36:17;;;;;;;53.00;25.85;;;4.70;99.90;;;;;;5093957;28;20763;-74
2021/12/04 06:38:44;;;;;;;53.47;25.07;;;4.70;99.90;;;;;;5093372;28;20400;-75
2021/12/04 06:41:10;;;;;;;49.10;24.10;;;4.70;99.90;;;;;;5111341;28;20408;-75
2021/12/04 06:43:39;;;;;;;54.28;25.80;;;4.70;99.90;;;;;;5093583;28;20420;-75
2021/12/04 06:46:06;;;;;;;55.33;25.53;;;4.70;99.90;;;;;;5093648;28;20408;-74
2021/12/04 06:51:10;;;;;;;62.15;26.23;;;4.70;99.90;;;;;;5111688;28;20404;-74
2021/12/04 06:56:06;;;;;;;56.15;26.27;;;4.70;99.90;;;;;;5093234;28;20436;-74
2021/12/04 06:58:32;;;;;;;54.38;25.50;;;4.70;99.90;;;;;;5093398;28;20755;-74
2021/12/04 07:00:57;;;;;;;56.35;26.60;;;4.70;99.90;;;;;;5093454;28;20408;-74
2021/12/04 07:03:23;;;;;;;51.37;25.90;;;4.70;99.90;;;;;;5092400;28;20515;-74
2021/12/04 07:05:49;;;;;;;58.80;26.38;;;4.70;99.90;;;;;;5092155;28;20517;-74
2021/12/04 07:08:15;;;;;;;57.05;25.65;;;4.60;99.90;;;;;;5092707;28;20495;-74
2021/12/04 07:10:41;;;;;;;58.00;25.67;;;4.60;99.90;;;;;;5093089;28;20774;-74
2021/12/04 07:13:07;;;;;;;56.47;26.15;;;4.60;99.90;;;;;;5092813;28;20401;-74
2021/12/04 07:15:33;;;;;;;54.72;25.98;;;4.60;99.90;;;;;;5092305;28;20404;-74
2021/12/04 07:18:00;;;;;;;53.78;25.05;;;4.60;99.90;;;;;;5092911;28;20392;-74
2021/12/04 07:20:27;;;;;;;52.50;24.67;;;4.60;99.90;;;;;;5092603;28;20408;-74
2021/12/04 07:22:52;;;;;;;46.50;23.70;;;4.60;99.90;;;;;;5092638;28;20436;-74
2021/12/04 07:25:18;;;;;;;46.42;24.10;;;4.60;99.90;;;;;;5092554;28;20455;-74
2021/12/04 07:27:45;;;;;;;50.03;24.10;;;4.60;99.90;;;;;;5092345;28;20399;-74
2021/12/04 07:30:11;;;;;;;47.58;23.38;;;4.60;99.90;;;;;;5092603;28;20428;-75
2021/12/04 07:32:38;;;;;;;50.15;23.83;;;4.60;99.90;;;;;;5110510;28;20422;-75
2021/12/04 07:35:05;;;;;;;47.78;24.17;;;4.60;99.90;;;;;;5075498;28;21005;-75
2021/12/04 07:37:30;;;;;;;44.78;23.42;;;4.60;99.90;;;;;;5092224;28;20407;-76
2021/12/04 07:39:56;;;;;;;49.47;23.77;;;4.60;99.90;;;;;;5110555;28;20487;-74
2021/12/04 07:42:22;;;;;;;51.40;24.43;;;4.60;99.90;;;;;;5092389;28;20407;-74
2021/12/04 07:44:47;;;;;;;49.13;24.55;;;4.60;99.90;;;;;;5092463;28;20430;-75
2021/12/04 07:47:14;;;;;;;50.08;25.02;;;4.60;99.90;;;;;;5092850;28;20768;-75
2021/12/04 07:49:40;;;;;;;47.40;24.80;;;4.70;99.90;;;;;;5091406;28;21250;-75
2021/12/04 07:52:08;;;;;;;50.03;25.17;;;4.60;99.90;;;;;;5092261;28;20400;-74
2021/12/04 07:54:35;;;;;;;49.80;24.60;;;4.60;99.90;;;;;;5092242;28;20407;-75
2021/12/04 07:57:02;;;;;;;52.47;26.00;;;4.70;99.90;;;;;;5091988;28;20407;-74
2021/12/04 07:59:28;;;;;;;49.38;25.23;;;4.60;99.90;;;;;;5091575;28;20408;-74
2021/12/04 08:01:57;;;;;;;49.45;24.83;;;4.70;99.90;;;;;;5091744;28;20407;-75
2021/12/04 08:04:24;;;;;;;57.63;26.85;;;4.70;99.90;;;;;;5109790;28;20407;-74
2021/12/04 08:06:51;;;;;;;55.03;25.52;;;4.70;99.90;;;;;;5091552;28;20540;-75
2021/12/04 08:09:17;;;;;;;57.17;26.08;;;4.70;99.90;;;;;;5091573;28;20420;-74
2021/12/04 08:11:43;;;;;;;58.78;27.13;;;4.70;99.90;;;;;;5090841;28;20487;-74
2021/12/04 08:14:08;;;;;;;55.17;25.20;;;4.70;99.90;;;;;;5091200;28;20447;-74
2021/12/04 08:16:34;;;;;;;58.95;25.73;;;4.70;99.90;;;;;;5090865;28;20408;-75
2021/12/04 08:19:00;;;;;;;57.37;25.07;;;4.70;99.90;;;;;;5091177;28;20407;-74
2021/12/04 08:21:26;;;;;;;64.13;27.55;;;4.70;99.90;;;;;;5110017;28;20400;-74
2021/12/04 08:23:52;;;;;;;67.47;28.00;;;4.70;99.90;;;;;;5109545;28;20466;-74
2021/12/04 08:26:18;;;;;;;62.40;27.58;;;4.70;99.90;;;;;;5074279;28;20762;-74
2021/12/04 08:28:45;;;;;;;74.75;28.75;;;4.70;99.90;;;;;;5091314;28;20511;-75
2021/12/04 08:31:11;;;;;;;82.72;29.58;;;4.70;99.90;;;;;;5091660;28;20758;-74
2021/12/04 08:33:37;;;;;;;88.53;30.48;;;4.70;99.90;;;;;;5109619;28;20380;-74
2021/12/04 08:36:04;;;;;;;98.13;30.98;;;4.70;99.90;;;;;;5089865;28;20457;-74
2021/12/04 08:38:30;;;;;;;92.43;30.45;;;4.70;99.90;;;;;;5088501;28;20948;-74
2021/12/04 08:40:56;;;;;;;95.80;31.97;;;4.70;99.90;;;;;;5108371;28;20410;-75
2021/12/04 08:43:22;;;;;;;87.97;30.13;;;4.70;99.90;;;;;;5090112;28;20491;-75
2021/12/04 08:45:48;;;;;;;99.88;29.95;;;4.70;99.90;;;;;;5108836;28;20423;-75
2021/12/04 08:48:13;;;;;;;82.60;29.17;;;4.70;99.90;;;;;;5108708;28;21256;-75
2021/12/04 08:50:40;;;;;;;80.95;29.08;;;4.70;99.90;;;;;;5109580;28;20474;-75
2021/12/04 08:53:07;;;;;;;73.47;28.57;;;4.70;99.90;;;;;;5091233;28;20400;-75
2021/12/04 08:55:35;;;;;;;67.47;27.35;;;4.70;99.90;;;;;;5090329;28;20409;-75
2021/12/04 08:58:02;;;;;;;57.38;25.15;;;4.70;99.90;;;;;;5108735;28;20501;-75
2021/12/04 09:00:59;;;;;;;53.50;24.17;;;4.70;99.90;;;;;;5107574;28;20393;-75
2021/12/04 09:03:33;;;;;;;55.60;25.27;;;4.70;99.90;;;;;;5086509;28;20420;-75
2021/12/04 09:05:59;;;;;;;56.50;25.17;;;4.70;99.90;;;;;;5080973;28;20417;-75
2021/12/04 09:08:27;;;;;;;53.08;24.45;;;4.70;99.90;;;;;;5106201;28;20446;-75
2021/12/04 09:10:56;;;;;;;45.28;23.27;;;4.70;99.90;;;;;;5088931;28;20420;-75
2021/12/04 09:13:22;;;;;;;46.17;23.17;;;4.70;99.90;;;;;;5072829;28;20404;-74
2021/12/04 09:15:49;;;;;;;42.08;21.95;;;4.80;99.90;;;;;;5107309;28;20404;-74
2021/12/04 09:18:15;;;;;;;47.45;22.92;;;4.80;99.90;;;;;;5089360;28;20441;-74
2021/12/04 09:20:44;;;;;;;43.87;21.73;;;4.70;99.90;;;;;;5086881;28;20807;-74
2021/12/04 09:23:15;;;;;;;39.83;19.98;;;4.80;99.90;;;;;;5070805;28;20406;-74
2021/12/04 09:25:45;;;;;;;39.15;20.90;;;4.80;99.90;;;;;;5073111;28;20402;-74
2021/12/04 09:28:27;;;;;;;35.58;20.30;;;4.80;99.90;;;;;;5106534;28;20407;-74
2021/12/04 10:01:14;;;;;;;22.53;17.43;;;5.10;99.90;;;;;;5107469;28;20404;-74
2021/12/04 10:04:17;;;;;;;19.73;16.85;;;5.10;99.90;;;;;;5105795;28;20424;-74
2021/12/04 10:12:40;;;;;;;23.50;18.03;;;5.10;99.90;;;;;;5107655;28;20404;-74
2021/12/04 10:20:45;;;;;;;24.48;17.73;;;5.10;99.90;;;;;;5089793;28;20479;-74
2021/12/04 10:23:26;;;;;;;22.23;17.30;;;5.10;99.90;;;;;;5089561;28;20411;-74
2021/12/04 10:34:14;;;;;;;28.40;20.07;;;5.10;99.90;;;;;;5098149;28;20794;-72
2021/12/04 10:36:41;;;;;;;27.27;19.47;;;5.10;99.90;;;;;;5089417;28;20396;-71
2021/12/04 10:39:10;;;;;;;28.93;20.27;;;5.20;99.90;;;;;;5090745;28;20413;-73
2021/12/04 10:41:39;;;;;;;29.05;20.05;;;5.20;99.90;;;;;;5086558;28;20404;-73
2021/12/04 10:44:17;;;;;;;30.25;20.83;;;5.20;99.90;;;;;;5111189;28;20415;-73
2021/12/04 10:46:59;;;;;;;27.97;19.30;;;5.20;99.90;;;;;;5111041;28;20423;-73
2021/12/04 10:49:46;;;;;;;27.60;19.00;;;5.20;99.90;;;;;;5093216;28;20424;-74
2021/12/04 10:52:28;;;;;;;25.95;18.50;;;5.20;99.90;;;;;;5092667;28;20416;-73
2021/12/04 11:01:25;;;;;;;26.92;18.30;;;5.20;99.90;;;;;;5093085;28;20409;-73
2021/12/04 11:04:27;;;;;;;26.65;18.42;;;5.20;99.90;;;;;;5092452;28;20416;-74
2021/12/04 11:46:45;;;;;;;34.85;21.63;;;5.30;99.90;;;;;;5092012;28;20469;-73
2021/12/04 11:49:24;;;;;;;40.78;24.10;;;5.30;99.90;;;;;;5092036;28;20511;-73
2021/12/04 11:52:00;;;;;;;45.33;24.75;;;5.30;99.90;;;;;;5091613;28;20465;-74
2021/12/04 11:54:43;;;;;;;46.28;24.65;;;5.30;99.90;;;;;;5091799;28;20405;-71
2021/12/04 11:57:12;;;;;;;53.03;27.50;;;5.20;99.90;;;;;;5110471;28;20414;-71
2021/12/04 11:59:40;;;;;;;50.22;27.45;;;5.20;99.90;;;;;;5109510;28;20479;-71
2021/12/04 12:02:10;;;;;;;57.80;28.63;;;5.20;99.90;;;;;;5110034;28;20401;-72
2021/12/04 12:04:44;;;;;;;58.05;28.83;;;5.20;99.90;;;;;;5109269;28;20491;-73
2021/12/04 12:07:27;;;;;;;59.55;29.58;;;5.20;99.90;;;;;;5072491;28;20501;-73
2021/12/04 12:10:13;;;;;;;64.07;30.20;;;5.20;99.90;;;;;;5074096;28;20431;-70
2021/12/04 12:12:42;;;;;;;62.97;30.63;;;5.20;99.90;;;;;;5109668;28;20412;-71
2021/12/04 12:15:32;;;;;;;61.35;30.58;;;5.20;99.90;;;;;;5091500;28;20413;-71
2021/12/04 12:18:10;;;;;;;65.30;30.63;;;5.20;99.90;;;;;;5075037;28;21024;-73
2021/12/04 12:23:13;;;;;;;55.55;29.98;;;5.20;99.90;;;;;;5089485;28;20417;-71
2021/12/04 12:34:13;;;;;;;53.20;29.38;;;5.20;99.90;;;;;;5108256;28;20392;-72
2021/12/04 12:36:39;;;;;;;56.47;29.85;;;5.20;99.90;;;;;;5108193;28;20408;-73
2021/12/04 12:39:05;;;;;;;54.80;30.23;;;5.20;99.90;;;;;;5089249;28;20470;-72
2021/12/04 12:41:43;;;;;;;55.38;30.00;;;5.30;99.90;;;;;;5078098;28;20505;-71
2021/12/04 12:44:14;;;;;;;49.88;29.08;;;5.20;99.90;;;;;;5089782;28;20925;-71
2021/12/04 12:47:15;;;;;;;49.13;28.05;;;5.30;99.90;;;;;;5089757;28;20796;-72
2021/12/04 12:49:44;;;;;;;45.97;28.05;;;5.30;99.90;;;;;;5042632;28;20430;-70
2021/12/04 12:52:20;;;;;;;47.83;27.88;;;5.30;99.90;;;;;;5085993;28;20460;-71
2021/12/04 12:54:55;;;;;;;48.97;28.60;;;5.30;99.90;;;;;;5106228;28;20531;-71
2021/12/04 12:57:39;;;;;;;49.33;28.98;;;5.30;99.90;;;;;;5086490;28;20839;-71
2021/12/04 13:14:16;;;;;;;44.80;27.40;;;5.40;99.90;;;;;;5066611;28;20416;-73
2021/12/04 13:16:46;;;;;;;45.95;28.55;;;5.40;99.90;;;;;;5064512;28;20442;-73
2021/12/04 13:19:14;;;;;;;46.20;28.70;;;5.40;99.90;;;;;;5066764;28;21016;-73
2021/12/04 13:21:43;;;;;;;45.78;28.08;;;5.40;99.90;;;;;;5066525;28;20415;-74
2021/12/04 13:24:11;;;;;;;45.67;28.50;;;5.30;99.90;;;;;;5050353;28;20917;-73
2021/12/04 13:26:48;;;;;;;45.90;29.13;;;5.30;99.90;;;;;;5066947;28;20446;-73
2021/12/04 13:29:16;;;;;;;43.33;28.17;;;5.30;99.90;;;;;;5066176;28;20496;-73
2021/12/04 13:31:43;;;;;;;49.10;29.50;;;5.30;99.90;;;;;;5066477;28;20789;-72
2021/12/04 13:34:11;;;;;;;47.88;29.60;;;5.30;99.90;;;;;;5068081;28;20403;-73
2021/12/04 13:36:37;;;;;;;42.50;27.33;;;5.30;99.90;;;;;;5066246;28;20403;-73
2021/12/04 13:39:10;;;;;;;43.07;27.33;;;5.30;99.90;;;;;;5066335;28;20412;-73
2021/12/04 13:41:38;;;;;;;43.80;28.05;;;5.30;99.90;;;;;;5049317;28;20487;-74
2021/12/04 13:44:06;;;;;;;42.40;27.23;;;5.30;99.90;;;;;;5066675;28;20407;-73
2021/12/04 13:46:42;;;;;;;43.67;27.92;;;5.30;99.90;;;;;;5066214;28;20432;-73
2021/12/04 13:49:09;;;;;;;43.65;28.15;;;5.40;99.90;;;;;;5066296;28;20438;-73
2021/12/04 13:51:35;;;;;;;43.30;28.17;;;5.30;99.90;;;;;;5065772;28;20407;-72
2021/12/04 13:54:02;;;;;;;41.07;26.90;;;5.30;99.90;;;;;;5066252;28;20418;-73
2021/12/04 13:56:29;;;;;;;43.33;28.43;;;5.30;99.90;;;;;;5066104;28;20930;-73
2021/12/04 13:59:00;;;;;;;41.90;27.52;;;5.30;99.90;;;;;;5049730;28;20561;-73
2021/12/04 14:01:28;;;;;;;43.83;28.35;;;5.30;99.90;;;;;;5066235;28;20411;-73
2021/12/04 14:04:01;;;;;;;46.90;29.48;;;5.30;99.90;;;;;;5065684;28;20408;-73
2021/12/04 14:06:27;;;;;;;49.67;30.13;;;5.30;99.90;;;;;;5069841;28;20512;-73
2021/12/04 14:09:07;;;;;;;47.53;29.47;;;5.30;99.90;;;;;;5086360;28;20826;-73
2021/12/04 14:11:39;;;;;;;52.37;31.67;;;5.30;99.90;;;;;;5086711;28;20425;-71
2021/12/04 14:14:15;;;;;;;56.30;32.47;;;5.30;99.90;;;;;;5089438;28;20402;-72
2021/12/04 14:16:43;;;;;;;55.97;32.85;;;5.30;99.90;;;;;;5091087;28;20414;-73
2021/12/04 14:19:19;;;;;;;58.38;33.95;;;5.30;99.90;;;;;;5089263;28;20509;-73
2021/12/04 14:22:02;;;;;;;57.88;34.05;;;5.30;99.90;;;;;;5089651;28;20421;-74
2021/12/04 14:24:45;;;;;;;60.83;35.05;;;5.30;99.90;;;;;;5089801;28;20414;-73
2021/12/04 14:27:23;;;;;;;64.87;34.87;;;5.30;99.90;;;;;;5090102;28;20455;-73
2021/12/04 14:29:55;;;;;;;68.95;37.15;;;5.30;99.90;;;;;;5089326;28;20440;-73
2021/12/04 14:32:27;;;;;;;73.63;37.20;;;5.30;99.90;;;;;;5089889;28;21325;-72
2021/12/04 14:34:57;;;;;;;80.30;38.00;;;5.30;99.90;;;;;;5089772;28;20410;-72
2021/12/04 14:37:22;;;;;;;85.28;39.47;;;5.30;99.90;;;;;;5089604;28;20429;-73
2021/12/04 14:39:49;;;;;;;90.10;40.30;;;5.30;99.90;;;;;;5083030;28;20422;-73
2021/12/04 14:42:22;;;;;;;100.55;41.90;;;5.20;99.90;;;;;;5085955;28;20400;-70
2021/12/04 14:44:57;;;;;;;98.35;41.10;;;5.20;99.90;;;;;;5087851;28;20406;-72
2021/12/04 14:47:28;;;;;;;104.18;42.08;;;5.20;99.90;;;;;;5090599;28;20497;-72
2021/12/04 14:49:59;;;;;;;102.63;42.03;;;5.20;99.90;;;;;;5090344;28;20444;-72
2021/12/04 14:52:25;;;;;;;103.40;41.30;;;5.30;99.90;;;;;;5083342;28;20405;-72
2021/12/04 14:54:52;;;;;;;94.07;40.80;;;5.20;99.90;;;;;;5089062;28;20402;-74
2021/12/04 14:57:27;;;;;;;98.90;40.10;;;5.20;99.90;;;;;;5084993;28;20476;-73
2021/12/04 15:00:08;;;;;;;87.38;38.53;;;5.30;99.90;;;;;;5088649;28;20414;-73
2021/12/04 15:02:34;;;;;;;92.45;39.95;;;5.20;99.90;;;;;;5088796;28;20428;-72
2021/12/04 15:05:02;;;;;;;86.57;37.75;;;5.20;99.90;;;;;;5089411;28;20509;-73
2021/12/04 15:07:31;;;;;;;88.47;38.00;;;5.20;99.90;;;;;;5088877;28;20450;-74
2021/12/04 15:09:57;;;;;;;78.93;36.63;;;5.20;99.90;;;;;;5089009;28;20544;-73
2021/12/04 15:12:25;;;;;;;76.73;36.30;;;5.30;99.90;;;;;;5088707;28;20489;-74
2021/12/04 15:14:56;;;;;;;77.10;35.83;;;5.20;99.90;;;;;;5071684;28;20405;-73
2021/12/04 15:17:22;;;;;;;67.75;32.80;;;5.20;99.90;;;;;;5089470;28;20467;-74
2021/12/04 15:19:48;;;;;;;68.77;33.63;;;5.20;99.90;;;;;;5080415;28;20410;-74
2021/12/04 15:22:23;;;;;;;65.35;33.58;;;5.20;99.90;;;;;;5089037;28;20520;-74
2021/12/04 15:24:49;;;;;;;65.93;34.43;;;5.20;99.90;;;;;;5087788;28;20505;-73
2021/12/04 15:27:18;;;;;;;65.20;33.97;;;5.20;99.90;;;;;;5088253;28;20490;-73
2021/12/04 15:29:50;;;;;;;69.95;34.20;;;5.20;99.90;;;;;;5087734;28;21100;-73
2021/12/04 15:32:20;;;;;;;64.10;33.53;;;5.20;99.90;;;;;;5088730;28;20406;-73
2021/12/04 15:34:54;;;;;;;61.80;32.13;;;5.20;99.90;;;;;;5089151;28;20420;-74
2021/12/04 15:37:34;;;;;;;61.25;32.17;;;5.20;99.90;;;;;;5089561;28;20412;-74
2021/12/04 15:40:03;;;;;;;62.60;32.17;;;5.20;99.90;;;;;;5062542;28;21468;-74
2021/12/04 15:42:49;;;;;;;61.38;32.58;;;5.20;99.90;;;;;;5066600;28;20459;-74
2021/12/04 15:45:31;;;;;;;53.97;30.23;;;5.20;99.90;;;;;;5068878;28;20460;-73
2021/12/04 15:48:31;;;;;;;59.42;31.15;;;5.30;99.90;;;;;;5086414;28;20402;-74
2021/12/04 15:51:17;;;;;;;56.08;29.95;;;5.30;99.90;;;;;;5088346;28;20489;-74
2021/12/04 15:53:56;;;;;;;56.83;30.77;;;5.30;99.90;;;;;;5086972;28;20401;-74
2021/12/04 15:56:42;;;;;;;54.85;28.55;;;5.30;99.90;;;;;;5088126;28;20422;-74